Time;durP1;ratioP1;P1;durP2;ratioP2;P2;SDS_P1;SDS_P2;PMS_P1;PMS_P2;Temp;Humidity;BMP_temperature;BMP_pressure;BME280_temperature;BME280_humidity;BME280_pressure;Samples;Min_cycle;Max_cycle;Signal;HPM_P1;HPM_P2
2022/08/11 00:02:44;;;;;;;3.90;2.50;;;14.00;99.90;;;;;;8378978;28;20029;-80
2022/08/11 00:06:47;;;;;;;4.45;2.45;;;13.90;99.90;;;;;;8391768;28;20031;-81
2022/08/11 00:11:03;;;;;;;5.28;2.80;;;14.20;99.90;;;;;;8387206;28;20492;-80
2022/08/11 00:15:04;;;;;;;6.47;2.33;;;14.20;99.90;;;;;;8389996;28;20040;-81
2022/08/11 00:19:05;;;;;;;4.65;2.50;;;14.20;99.90;;;;;;8385909;28;20043;-80
2022/08/11 00:23:09;;;;;;;3.25;2.53;;;14.10;99.90;;;;;;8390825;28;20021;-81
2022/08/11 00:27:09;;;;;;;2.65;2.38;;;13.90;99.90;;;;;;8392442;28;20074;-80
2022/08/11 00:31:25;;;;;;;3.65;2.55;;;13.80;99.90;;;;;;8390768;28;20480;-80
2022/08/11 00:35:30;;;;;;;5.60;2.55;;;13.90;99.90;;;;;;8383821;28;20024;-79
2022/08/11 00:39:33;;;;;;;5.00;2.60;;;13.70;99.90;;;;;;8384195;28;20032;-79
2022/08/11 00:43:50;;;;;;;6.53;2.47;;;13.70;99.90;;;;;;8384500;28;20033;-79
2022/08/11 00:47:55;;;;;;;2.42;2.22;;;13.60;99.90;;;;;;8386413;28;20017;-79
2022/08/11 00:52:27;;;;;;;3.22;2.85;;;13.50;99.90;;;;;;8391710;28;20029;-79
2022/08/11 00:56:59;;;;;;;4.57;2.80;;;13.40;99.90;;;;;;8373681;28;20021;-80
2022/08/11 01:01:15;;;;;;;5.53;2.90;;;13.30;99.90;;;;;;8382394;28;20119;-80
2022/08/11 01:05:33;;;;;;;2.97;2.67;;;13.30;99.90;;;;;;8366272;28;20060;-80
2022/08/11 01:09:52;;;;;;;4.43;3.00;;;13.20;99.90;;;;;;8383793;28;20032;-80
2022/08/11 01:14:05;;;;;;;5.07;3.08;;;13.00;99.90;;;;;;8383917;28;20020;-81
2022/08/11 01:18:43;;;;;;;4.50;3.35;;;12.90;99.90;;;;;;8389950;28;20035;-80
2022/08/11 01:23:11;;;;;;;3.90;3.10;;;12.80;99.90;;;;;;8381958;28;20033;-81
2022/08/11 01:27:39;;;;;;;3.67;3.35;;;12.70;99.90;;;;;;8380087;28;20104;-80
2022/08/11 01:31:45;;;;;;;4.57;3.45;;;12.60;99.90;;;;;;8383973;28;20324;-80
2022/08/11 01:36:00;;;;;;;5.53;3.28;;;12.40;99.90;;;;;;8370510;28;20021;-80
2022/08/11 01:40:18;;;;;;;4.40;3.78;;;12.30;99.90;;;;;;8379176;28;20047;-81
2022/08/11 01:44:41;;;;;;;5.60;3.58;;;12.10;99.90;;;;;;8381376;28;20606;-80
2022/08/11 01:48:46;;;;;;;6.78;3.83;;;12.00;99.90;;;;;;8368483;28;20043;-80
2022/08/11 01:53:26;;;;;;;5.00;3.78;;;11.90;99.90;;;;;;8382676;28;20052;-81
2022/08/11 01:57:55;;;;;;;5.43;4.13;;;11.80;99.90;;;;;;8328618;28;20037;-80
2022/08/11 02:02:44;;;;;;;5.85;4.05;;;11.70;99.90;;;;;;8370356;28;20021;-81
2022/08/11 02:07:12;;;;;;;6.18;3.63;;;11.80;99.90;;;;;;8365503;28;20016;-80
2022/08/11 02:11:32;;;;;;;4.57;3.85;;;11.70;99.90;;;;;;8380862;28;20020;-80
2022/08/11 02:15:41;;;;;;;9.00;4.05;;;11.60;99.90;;;;;;8366526;28;20549;-80
2022/08/11 02:24:18;;;;;;;3.83;3.53;;;11.40;99.90;;;;;;8388352;28;20108;-80
2022/08/11 02:28:27;;;;;;;7.30;3.85;;;11.30;99.90;;;;;;8382572;28;20024;-80
2022/08/11 02:37:18;;;;;;;5.90;4.80;;;11.10;99.90;;;;;;8374915;28;20109;-80
2022/08/11 02:46:14;;;;;;;5.53;4.90;;;11.10;99.90;;;;;;8382419;28;20542;-80
2022/08/11 02:50:22;;;;;;;6.65;5.43;;;11.00;99.90;;;;;;8385248;28;20028;-81
2022/08/11 02:54:30;;;;;;;7.25;4.97;;;11.00;99.90;;;;;;8385664;28;20070;-80
2022/08/11 02:59:49;;;;;;;5.22;4.60;;;11.00;99.90;;;;;;8367357;28;20093;-80
2022/08/11 03:03:36;;;;;;;6.85;4.57;;;11.00;99.90;;;;;;8382510;28;20020;-80
2022/08/11 03:07:39;;;;;;;6.15;5.25;;;10.70;99.90;;;;;;8384032;28;20108;-80
2022/08/11 03:16:50;;;;;;;8.05;5.28;;;10.20;99.90;;;;;;8378486;28;20028;-80
2022/08/11 03:21:01;;;;;;;7.15;5.65;;;10.10;99.90;;;;;;8383907;28;20397;-80
2022/08/11 03:25:17;;;;;;;9.90;5.90;;;10.10;99.90;;;;;;8388377;28;20408;-80
2022/08/11 03:29:35;;;;;;;6.97;5.95;;;10.00;99.90;;;;;;8377163;28;20016;-79
2022/08/11 03:34:01;;;;;;;7.15;5.32;;;10.00;99.90;;;;;;8389363;28;20086;-80
2022/08/11 03:38:09;;;;;;;8.43;6.03;;;9.90;99.90;;;;;;8392710;28;20408;-80
2022/08/11 03:42:40;;;;;;;9.13;6.68;;;9.80;99.90;;;;;;8399925;28;20081;-80
2022/08/11 03:46:47;;;;;;;;;;;9.70;99.90;;;;;;8378830;28;20374;-80
2022/08/11 03:51:12;;;;;;;8.20;5.78;;;9.70;99.90;;;;;;8374065;28;19909;-80
2022/08/11 03:55:38;;;;;;;8.77;6.53;;;9.60;99.90;;;;;;8404240;28;20024;-80
2022/08/11 03:59:55;;;;;;;7.65;6.68;;;9.60;99.90;;;;;;8379520;28;20070;-80
2022/08/11 04:04:40;;;;;;;7.18;6.32;;;9.60;99.90;;;;;;8385381;28;20028;-80
2022/08/11 04:09:09;;;;;;;9.13;6.28;;;9.70;99.90;;;;;;8388353;28;20024;-80
2022/08/11 04:13:34;;;;;;;10.57;6.75;;;9.70;99.90;;;;;;8379127;28;20057;-80
2022/08/11 04:18:13;;;;;;;8.23;6.68;;;9.50;99.90;;;;;;8375105;28;20021;-80
2022/08/11 04:22:19;;;;;;;7.47;5.85;;;9.40;99.90;;;;;;8268898;28;20453;-80
2022/08/11 04:26:56;;;;;;;7.68;6.60;;;9.50;99.90;;;;;;8324103;28;20035;-80
2022/08/11 04:31:10;;;;;;;7.88;7.07;;;9.40;99.90;;;;;;8389517;28;20021;-80
2022/08/11 04:35:49;;;;;;;8.45;6.80;;;9.40;99.90;;;;;;8381744;28;20024;-79
2022/08/11 04:40:11;;;;;;;10.05;6.72;;;9.40;99.90;;;;;;8389422;28;20028;-80
2022/08/11 04:44:20;;;;;;;7.35;6.18;;;9.60;99.90;;;;;;8388606;28;20024;-81
2022/08/11 05:02:36;;;;;;;7.47;5.65;;;10.30;99.90;;;;;;8385145;28;20400;-80
2022/08/11 05:07:09;;;;;;;8.07;6.18;;;10.50;99.90;;;;;;8378101;28;20596;-80
2022/08/11 05:11:46;;;;;;;6.70;6.07;;;10.80;99.90;;;;;;8388583;28;20060;-80
2022/08/11 05:56:18;;;;;;;6.32;4.82;;;13.50;99.90;;;;;;8387142;28;20027;-80
2022/08/11 06:00:19;;;;;;;5.13;4.55;;;14.40;99.90;;;;;;8366863;28;20056;-80
2022/08/11 06:04:22;;;;;;;6.53;4.28;;;15.90;99.90;;;;;;8375899;28;20119;-81
2022/08/11 06:08:34;;;;;;;4.18;3.70;;;17.20;99.90;;;;;;8388849;28;20112;-80
2022/08/11 06:12:36;;;;;;;4.18;3.83;;;18.70;99.90;;;;;;8373925;28;20043;-80
2022/08/11 06:16:39;;;;;;;3.92;3.53;;;19.60;99.90;;;;;;8380898;28;20018;-80
2022/08/11 06:20:54;;;;;;;4.68;3.50;;;19.90;99.90;;;;;;8389032;28;20024;-78
2022/08/11 06:25:00;;;;;;;6.07;3.90;;;20.00;99.90;;;;;;8382146;28;20028;-78
2022/08/11 06:29:02;;;;;;;5.10;3.38;;;20.50;99.90;;;;;;8386671;28;20153;-79
2022/08/11 06:33:06;;;;;;;4.53;3.30;;;20.70;99.90;;;;;;8388736;28;20063;-79
2022/08/11 06:37:19;;;;;;;4.38;3.25;;;21.50;99.90;;;;;;8382866;28;20032;-79
2022/08/11 06:41:35;;;;;;;5.22;3.40;;;21.30;99.90;;;;;;8363111;28;20017;-79
2022/08/11 06:46:04;;;;;;;5.72;3.10;;;21.30;99.90;;;;;;8383030;28;20051;-79
2022/08/11 06:54:28;;;;;;;4.78;3.15;;;21.30;99.90;;;;;;8376098;28;20101;-79
2022/08/11 07:03:09;;;;;;;4.00;3.00;;;22.50;99.90;;;;;;8387949;28;20027;-79
2022/08/11 07:16:27;;;;;;;6.60;3.35;;;23.10;99.90;;;;;;8394068;28;20031;-79
2022/08/11 07:29:33;;;;;;;4.10;3.17;;;22.60;99.90;;;;;;8380696;28;20124;-79
2022/08/11 07:33:45;;;;;;;3.63;2.92;;;22.60;99.90;;;;;;8368656;28;20025;-79
2022/08/11 07:38:00;;;;;;;8.73;3.80;;;23.00;99.90;;;;;;8371526;28;20078;-78
2022/08/11 07:42:07;;;;;;;7.78;3.47;;;23.40;99.90;;;;;;8363686;28;20020;-79
2022/08/11 07:54:49;;;;;;;5.57;3.28;;;22.60;99.90;;;;;;8385112;28;19947;-81
2022/08/11 08:20:30;;;;;;;5.80;2.97;;;23.30;99.90;;;;;;8372454;28;20046;-79
2022/08/11 08:24:32;;;;;;;5.55;3.28;;;24.10;99.90;;;;;;8378657;28;20028;-79
2022/08/11 08:28:33;;;;;;;4.45;2.83;;;24.60;99.60;;;;;;8368163;28;20033;-78
2022/08/11 08:32:39;;;;;;;3.97;2.67;;;24.10;99.90;;;;;;8380157;28;20018;-78
2022/08/11 08:36:43;;;;;;;5.72;3.40;;;23.80;99.90;;;;;;8368287;28;20044;-79
2022/08/11 08:40:47;;;;;;;3.92;3.50;;;24.30;99.90;;;;;;8367538;28;20472;-79
2022/08/11 08:44:55;;;;;;;6.40;2.72;;;24.10;99.90;;;;;;8364805;28;20086;-79
2022/08/11 08:49:00;;;;;;;4.75;3.10;;;24.10;99.90;;;;;;8366518;28;20036;-79
2022/08/11 08:53:05;;;;;;;4.93;3.10;;;23.90;99.90;;;;;;8376001;28;20066;-79
2022/08/11 08:57:07;;;;;;;6.68;2.88;;;24.20;99.90;;;;;;8370298;28;20099;-81
2022/08/11 09:01:10;;;;;;;5.43;3.40;;;24.30;99.90;;;;;;8371926;28;20035;-79
2022/08/11 09:05:11;;;;;;;7.88;3.65;;;24.40;99.90;;;;;;8368844;28;20025;-79
2022/08/11 09:09:13;;;;;;;3.97;3.33;;;24.50;99.90;;;;;;8365236;28;20025;-79
2022/08/11 09:13:14;;;;;;;6.05;3.15;;;24.50;99.90;;;;;;8368993;28;20017;-78
2022/08/11 09:17:17;;;;;;;5.75;3.20;;;24.20;99.90;;;;;;8381759;28;20070;-79
2022/08/11 09:21:22;;;;;;;3.63;3.13;;;24.30;98.70;;;;;;8367480;28;20032;-79
2022/08/11 09:29:45;;;;;;;5.20;3.25;;;24.50;99.90;;;;;;8381418;28;20341;-79
2022/08/11 09:33:47;;;;;;;4.40;3.10;;;24.50;99.90;;;;;;8359889;28;20029;-79
2022/08/11 09:42:09;;;;;;;4.35;2.92;;;25.10;99.50;;;;;;8373750;28;20131;-79
2022/08/11 09:46:11;;;;;;;4.82;3.40;;;24.70;98.60;;;;;;8364266;28;20385;-79
2022/08/11 09:50:15;;;;;;;5.18;3.20;;;24.70;99.40;;;;;;8367872;28;20025;-79
2022/08/11 09:54:17;;;;;;;7.03;3.22;;;25.00;99.90;;;;;;8370024;28;20029;-79
2022/08/11 09:58:20;;;;;;;5.00;3.03;;;25.10;98.60;;;;;;8373482;28;20025;-79
2022/08/11 10:02:29;;;;;;;5.00;3.30;;;25.30;98.10;;;;;;8376447;28;20020;-79
2022/08/11 10:10:49;;;;;;;3.80;2.47;;;25.50;99.90;;;;;;8364396;28;20094;-79
2022/08/11 10:19:18;;;;;;;3.33;2.95;;;25.50;96.60;;;;;;8369494;28;20566;-80
2022/08/11 10:27:42;;;;;;;4.57;2.63;;;26.20;97.30;;;;;;8380218;28;20066;-79
2022/08/11 10:36:05;;;;;;;4.82;2.67;;;26.80;95.80;;;;;;8374141;28;20047;-79
2022/08/11 10:40:09;;;;;;;5.07;2.60;;;26.70;93.50;;;;;;8374528;28;20021;-78
2022/08/11 10:44:11;;;;;;;4.32;3.05;;;26.70;91.60;;;;;;8383579;28;20024;-80
2022/08/11 10:48:13;;;;;;;5.53;2.55;;;27.70;91.10;;;;;;8372037;28;20060;-78
2022/08/11 11:00:57;;;;;;;2.40;2.20;;;27.70;85.30;;;;;;8372214;28;20060;-78
2022/08/11 11:05:01;;;;;;;3.28;2.67;;;27.10;88.60;;;;;;8370981;28;20082;-80
2022/08/11 11:09:10;;;;;;;3.40;2.60;;;27.60;90.00;;;;;;8377925;28;20481;-79
2022/08/11 11:22:36;;;;;;;3.63;2.58;;;29.50;77.10;;;;;;8374457;28;20110;-80
2022/08/11 11:26:31;;;;;;;3.17;2.55;;;29.80;74.20;;;;;;8383187;28;20056;-79
2022/08/11 11:30:40;;;;;;;2.60;2.40;;;30.20;73.20;;;;;;8375953;28;20021;-79
2022/08/11 11:35:01;;;;;;;3.03;2.50;;;30.00;80.10;;;;;;8370978;28;20084;-80
2022/08/11 11:39:04;;;;;;;3.47;2.67;;;29.30;79.80;;;;;;8366331;28;20028;-79
2022/08/11 11:43:05;;;;;;;7.15;2.45;;;28.70;86.20;;;;;;8372116;28;20029;-80
2022/08/11 11:47:06;;;;;;;4.05;2.78;;;30.30;81.40;;;;;;8376790;28;20025;-79
2022/08/11 11:51:07;;;;;;;2.70;2.00;;;31.40;75.90;;;;;;8363436;28;20074;-78
2022/08/11 11:55:09;;;;;;;2.30;2.10;;;31.40;69.00;;;;;;8368811;28;20025;-80
2022/08/11 12:03:32;;;;;;;3.85;2.50;;;32.40;64.10;;;;;;8379020;28;20048;-80
2022/08/11 12:16:14;;;;;;;3.07;2.20;;;32.40;63.40;;;;;;8370042;28;20032;-80
2022/08/11 12:20:20;;;;;;;2.72;2.28;;;32.70;62.00;;;;;;8365675;28;20023;-78
2022/08/11 12:28:39;;;;;;;4.53;2.22;;;31.50;64.00;;;;;;8365654;28;20031;-80
2022/08/11 12:32:42;;;;;;;2.92;2.40;;;30.30;62.70;;;;;;8380021;28;20025;-80
2022/08/11 12:36:50;;;;;;;4.47;2.53;;;30.70;64.90;;;;;;8375854;28;20096;-80
2022/08/11 12:45:28;;;;;;;3.17;2.30;;;32.30;65.60;;;;;;8364622;28;20075;-80
2022/08/11 12:54:06;;;;;;;5.82;2.42;;;30.90;62.70;;;;;;8371922;28;20066;-79
2022/08/11 12:58:15;;;;;;;3.17;2.22;;;31.10;60.60;;;;;;8367440;28;20020;-79
2022/08/11 13:06:40;;;;;;;5.07;2.22;;;29.60;67.10;;;;;;8361101;28;20044;-80
2022/08/11 13:15:02;;;;;;;3.42;2.10;;;29.80;65.90;;;;;;8367115;28;20031;-80
2022/08/11 13:19:02;;;;;;;4.60;2.30;;;32.00;64.50;;;;;;8367052;28;20163;-80
2022/08/11 13:23:04;;;;;;;3.75;2.30;;;33.70;57.50;;;;;;8366809;28;20099;-79
2022/08/11 13:27:06;;;;;;;8.00;2.15;;;35.30;53.00;;;;;;8366384;28;20078;-79
2022/08/11 13:31:13;;;;;;;2.58;2.30;;;34.60;56.50;;;;;;8368803;28;20029;-80
2022/08/11 13:35:15;;;;;;;3.10;2.08;;;33.00;58.50;;;;;;8366308;28;20028;-79
2022/08/11 13:39:16;;;;;;;5.15;2.55;;;31.60;56.50;;;;;;8374660;28;20031;-79
2022/08/11 13:43:19;;;;;;;3.72;2.15;;;31.80;58.90;;;;;;8378304;28;20032;-79
2022/08/11 13:47:22;;;;;;;2.33;2.10;;;32.80;55.50;;;;;;8360602;28;20021;-79
2022/08/11 13:51:29;;;;;;;2.17;1.90;;;34.70;52.70;;;;;;8360212;28;20033;-79
2022/08/11 13:55:30;;;;;;;2.33;2.13;;;33.30;57.60;;;;;;8365857;28;20028;-79
2022/08/11 13:59:31;;;;;;;3.25;2.15;;;32.90;55.80;;;;;;8369644;28;20496;-80
2022/08/11 14:03:33;;;;;;;2.20;2.00;;;31.80;59.00;;;;;;8367204;28;20033;-79
2022/08/11 14:07:40;;;;;;;3.30;2.05;;;30.70;59.90;;;;;;8360918;28;20487;-80
2022/08/11 14:16:07;;;;;;;3.78;2.20;;;32.10;55.60;;;;;;8369514;28;20384;-79
2022/08/11 14:20:12;;;;;;;3.53;2.10;;;31.10;57.10;;;;;;8361746;28;20021;-80
2022/08/11 14:24:14;;;;;;;2.55;2.13;;;32.80;56.70;;;;;;8377582;28;20484;-80
2022/08/11 14:28:16;;;;;;;2.40;2.10;;;35.60;50.80;;;;;;8373514;28;20033;-80
2022/08/11 14:32:20;;;;;;;4.95;2.10;;;33.40;54.50;;;;;;8372193;28;20028;-79
2022/08/11 14:36:23;;;;;;;3.97;2.30;;;31.60;54.50;;;;;;8369782;28;20005;-80
2022/08/11 14:49:06;;;;;;;5.97;2.58;;;33.90;53.70;;;;;;8364531;28;20087;-79
2022/08/11 14:53:09;;;;;;;2.63;2.10;;;33.30;51.90;;;;;;8397323;22;20049;-83
2022/08/11 14:57:10;;;;;;;2.75;2.00;;;32.30;54.60;;;;;;8388286;28;20021;-84
2022/08/11 15:05:31;;;;;;;2.47;1.70;;;33.50;53.50;;;;;;8377759;28;20040;-84
2022/08/11 15:09:32;;;;;;;6.03;2.55;;;34.50;49.30;;;;;;8381652;28;20118;-84
2022/08/11 15:13:33;;;;;;;4.88;2.20;;;34.30;50.50;;;;;;8382967;28;20380;-85
2022/08/11 15:17:34;;;;;;;3.53;2.03;;;35.10;48.20;;;;;;8376777;28;20029;-84
2022/08/11 15:26:12;;;;;;;2.75;2.00;;;34.60;47.00;;;;;;8390618;28;20047;-85
2022/08/11 15:39:05;;;;;;;5.93;2.25;;;33.10;50.30;;;;;;8392111;28;20149;-83
2022/08/11 15:47:58;;;;;;;3.92;2.00;;;34.00;50.60;;;;;;8390529;28;20052;-84
2022/08/11 15:52:15;;;;;;;6.10;2.35;;;30.90;54.00;;;;;;8386618;28;20031;-84
2022/08/11 15:56:17;;;;;;;2.47;2.08;;;29.10;58.00;;;;;;8377652;28;20039;-83
2022/08/11 16:04:42;;;;;;;11.38;2.35;;;27.40;58.90;;;;;;8388369;28;20031;-84
2022/08/11 16:08:44;;;;;;;4.35;2.40;;;27.10;62.70;;;;;;8378192;28;20020;-84
2022/08/11 16:17:10;;;;;;;2.75;2.22;;;26.30;63.40;;;;;;8378847;28;20021;-86
2022/08/11 16:21:24;;;;;;;4.72;2.22;;;26.20;66.40;;;;;;8389430;28;20089;-84
2022/08/11 16:25:26;;;;;;;3.50;1.98;;;26.20;62.10;;;;;;8375917;28;20035;-85
2022/08/11 16:29:30;;;;;;;2.78;2.10;;;26.20;64.10;;;;;;8360559;28;20032;-85
2022/08/11 16:33:31;;;;;;;5.95;2.33;;;26.00;65.20;;;;;;8373607;28;20025;-85
2022/08/11 16:50:39;;;;;;;2.90;2.03;;;26.20;63.90;;;;;;8385062;28;20040;-84
2022/08/11 16:54:41;;;;;;;3.08;2.00;;;26.10;64.90;;;;;;8388401;28;20029;-85
2022/08/11 17:16:21;;;;;;;5.53;1.98;;;25.90;64.70;;;;;;8380742;28;20567;-85
2022/08/11 17:20:23;;;;;;;2.47;2.13;;;25.40;68.40;;;;;;8367343;28;20100;-84
2022/08/11 17:24:26;;;;;;;3.00;2.20;;;25.10;66.20;;;;;;8360745;28;20039;-86
2022/08/11 17:28:29;;;;;;;4.55;2.15;;;24.90;65.90;;;;;;8401853;28;20032;-87
2022/08/11 17:37:10;;;;;;;2.97;1.95;;;24.40;70.00;;;;;;8401070;28;20121;-84
2022/08/11 17:48:24;;;;;;;9.30;2.30;;;23.90;72.80;;;;;;8391933;28;20108;-86
2022/08/11 17:50:02;;;;;;;3.03;1.70;;;23.70;76.00;;;;;;8391495;28;20035;-84
